createdAt,value
2019-03-28T00:01:11.390Z,3.67
2019-03-28T00:05:27.922Z,6.97
2019-03-28T00:09:45.138Z,3.83
2019-03-28T00:14:01.763Z,6.83
2019-03-28T00:18:18.587Z,5.43
2019-03-28T00:22:53.863Z,4.47
2019-03-28T00:27:10.371Z,5.77
2019-03-28T00:31:27.199Z,7.10
2019-03-28T00:35:43.657Z,7.30
2019-03-28T00:40:05.555Z,4.90
2019-03-28T00:44:22.091Z,8.77
2019-03-28T00:48:38.991Z,7.97
2019-03-28T00:52:55.551Z,7.90
2019-03-28T00:57:12.441Z,5.67
2019-03-28T01:01:28.957Z,4.97
2019-03-28T01:05:45.456Z,5.63
2019-03-28T01:10:02.396Z,11.63
2019-03-28T01:14:19.011Z,12.03
2019-03-28T01:18:35.889Z,15.37
2019-03-28T01:22:52.748Z,6.37
2019-03-28T01:27:09.265Z,14.70
2019-03-28T01:31:26.101Z,7.90
2019-03-28T01:35:42.588Z,12.70
2019-03-28T01:40:00.253Z,9.70
2019-03-28T01:44:17.353Z,13.73
2019-03-28T01:48:34.128Z,11.70
2019-03-28T01:52:50.733Z,12.93
2019-03-28T01:57:11.092Z,12.57
2019-03-28T02:01:25.719Z,12.97
2019-03-28T02:05:42.841Z,8.83
2019-03-28T02:10:00.306Z,8.90
2019-03-28T02:14:16.877Z,12.07
2019-03-28T02:18:33.439Z,11.73
2019-03-28T02:22:50.214Z,14.23
2019-03-28T02:27:06.715Z,15.07
2019-03-28T02:31:23.371Z,15.93
2019-03-28T02:35:39.845Z,17.77
2019-03-28T02:39:56.398Z,18.63
2019-03-28T02:44:13.202Z,26.23
2019-03-28T02:48:29.752Z,17.17
2019-03-28T02:52:46.355Z,19.73
2019-03-28T02:57:03.046Z,13.83
2019-03-28T03:01:19.571Z,26.30
2019-03-28T03:05:36.209Z,23.40
2019-03-28T03:09:53.015Z,28.27
2019-03-28T03:14:09.548Z,30.23
2019-03-28T03:18:26.356Z,28.70
2019-03-28T03:22:43.367Z,27.83
2019-03-28T03:26:59.917Z,24.27
2019-03-28T03:31:20.876Z,29.53
2019-03-28T03:35:35.156Z,30.50
2019-03-28T03:39:51.717Z,31.80
2019-03-28T03:44:08.255Z,26.23
2019-03-28T03:48:24.724Z,22.73
2019-03-28T03:52:41.662Z,28.40
2019-03-28T03:56:58.763Z,34.93
2019-03-28T04:01:15.521Z,33.70
2019-03-28T04:05:32.641Z,33.47
2019-03-28T04:09:49.157Z,29.17
2019-03-28T04:14:05.674Z,35.07
2019-03-28T04:18:22.518Z,29.03
2019-03-28T04:22:39.593Z,38.07
2019-03-28T04:26:56.256Z,33.17
2019-03-28T04:31:12.862Z,33.93
2019-03-28T04:35:29.391Z,32.37
2019-03-28T04:39:45.909Z,38.83
2019-03-28T04:44:02.603Z,31.43
2019-03-28T04:48:19.139Z,34.00
2019-03-28T04:52:35.636Z,38.20
2019-03-28T04:56:52.324Z,41.53
2019-03-28T05:01:08.863Z,39.60
2019-03-28T05:05:25.701Z,41.03
2019-03-28T05:09:42.220Z,41.43
2019-03-28T05:13:58.722Z,32.77
2019-03-28T05:18:15.249Z,41.43
2019-03-28T05:22:31.782Z,42.30
2019-03-28T05:26:48.267Z,35.87
2019-03-28T05:31:06.058Z,49.23
2019-03-28T05:35:22.554Z,42.50
2019-03-28T05:39:39.194Z,42.27
2019-03-28T05:43:55.990Z,46.47
2019-03-28T05:48:12.519Z,51.93
2019-03-28T05:52:29.255Z,45.53
2019-03-28T05:56:46.146Z,44.43
2019-03-28T06:01:02.774Z,57.08
2019-03-28T06:05:19.382Z,50.33
2019-03-28T06:09:35.886Z,43.47
2019-03-28T06:13:52.714Z,39.43
2019-03-28T06:18:09.645Z,38.10
2019-03-28T06:22:26.141Z,39.97
2019-03-28T06:26:43.079Z,44.20
2019-03-28T06:30:59.603Z,45.13
2019-03-28T06:35:16.232Z,46.40
2019-03-28T06:39:32.814Z,40.57
2019-03-28T06:43:49.367Z,41.07
2019-03-28T06:48:24.381Z,42.13
2019-03-28T06:52:40.909Z,39.17
2019-03-28T06:56:57.646Z,41.20
2019-03-28T07:01:14.423Z,41.33
2019-03-28T07:05:30.982Z,44.67
2019-03-28T07:09:47.734Z,38.40
2019-03-28T07:14:04.218Z,38.50
2019-03-28T07:18:20.716Z,37.60
2019-03-28T07:22:40.331Z,39.83
2019-03-28T07:26:56.952Z,35.03
2019-03-28T07:31:13.570Z,33.73
2019-03-28T07:35:30.375Z,33.70
2019-03-28T07:39:46.868Z,30.07
2019-03-28T07:44:03.508Z,29.93
2019-03-28T07:48:20.482Z,28.53
2019-03-28T07:52:37.258Z,31.63
2019-03-28T07:56:54.202Z,27.83
2019-03-28T08:01:10.704Z,26.53
2019-03-28T08:05:27.642Z,22.30
2019-03-28T08:09:44.188Z,20.73
2019-03-28T08:14:00.777Z,20.93
2019-03-28T08:18:17.315Z,20.37
2019-03-28T08:22:33.809Z,22.37
2019-03-28T08:26:50.402Z,20.30
2019-03-28T08:31:07.202Z,18.27
2019-03-28T08:35:24.180Z,17.20
2019-03-28T08:39:44.436Z,23.83
2019-03-28T08:44:00.164Z,16.57
2019-03-28T08:48:16.678Z,17.83
2019-03-28T08:52:33.300Z,20.70
2019-03-28T08:56:49.814Z,20.93
2019-03-28T09:01:07.246Z,17.63
2019-03-28T09:05:23.789Z,19.20
2019-03-28T09:09:40.396Z,16.17
2019-03-28T09:13:57.224Z,14.77
2019-03-28T09:18:13.775Z,15.23
2019-03-28T09:22:30.379Z,18.27
2019-03-28T09:26:46.872Z,15.13
2019-03-28T09:31:03.804Z,16.10
2019-03-28T09:35:29.570Z,15.67
2019-03-28T09:39:46.252Z,14.97
2019-03-28T09:44:03.183Z,16.37
2019-03-28T09:48:19.679Z,17.37
2019-03-28T09:52:36.204Z,19.47
2019-03-28T09:56:52.785Z,18.70
2019-03-28T10:01:09.833Z,18.67
2019-03-28T10:05:26.369Z,18.13
2019-03-28T10:09:43.126Z,19.17
2019-03-28T10:13:59.700Z,19.73
2019-03-28T10:18:16.731Z,19.40
2019-03-28T10:22:33.262Z,18.90
2019-03-28T10:26:49.774Z,17.43
2019-03-28T10:31:16.209Z,21.37
2019-03-28T10:35:25.954Z,19.17
2019-03-28T10:39:42.478Z,22.37
2019-03-28T10:43:59.014Z,21.57
2019-03-28T10:48:15.511Z,21.50
2019-03-28T10:52:32.043Z,22.07
2019-03-28T10:56:52.014Z,22.20
2019-03-28T11:01:07.407Z,22.10
2019-03-28T11:05:23.942Z,24.57
2019-03-28T11:09:40.853Z,22.60
2019-03-28T11:13:57.670Z,22.87
2019-03-28T11:18:14.196Z,24.33
2019-03-28T11:22:30.852Z,24.50
2019-03-28T11:26:47.328Z,18.67
2019-03-28T11:31:03.998Z,19.77
2019-03-28T11:35:20.582Z,18.80
2019-03-28T11:39:37.084Z,21.33
2019-03-28T11:43:53.725Z,21.43
2019-03-28T11:48:10.207Z,21.00
2019-03-28T11:52:27.151Z,19.80
2019-03-28T11:56:43.953Z,18.17
2019-03-28T12:01:00.896Z,20.73
2019-03-28T12:05:17.505Z,23.20
2019-03-28T12:09:34.031Z,23.80
2019-03-28T12:13:50.525Z,22.27
2019-03-28T12:18:07.050Z,19.80
2019-03-28T12:22:23.559Z,21.03
2019-03-28T12:26:40.085Z,20.80
2019-03-28T12:30:56.615Z,20.23
2019-03-28T12:35:13.323Z,21.80
2019-03-28T12:39:29.863Z,23.47
2019-03-28T12:43:46.366Z,22.73
2019-03-28T12:48:03.890Z,14.73
2019-03-28T12:52:20.425Z,18.23
2019-03-28T12:56:37.245Z,20.80
2019-03-28T13:00:54.060Z,22.07
2019-03-28T13:05:11.002Z,22.27
2019-03-28T13:09:28.244Z,20.00
2019-03-28T13:13:45.266Z,22.90
2019-03-28T13:18:01.861Z,17.13
2019-03-28T13:22:18.389Z,21.57
2019-03-28T13:26:34.977Z,24.33
2019-03-28T13:30:51.809Z,22.27
2019-03-28T13:35:09.506Z,20.40
2019-03-28T13:39:25.938Z,23.33
2019-03-28T13:43:42.462Z,21.53
2019-03-28T13:47:59.100Z,22.50
2019-03-28T13:52:15.615Z,22.57
2019-03-28T13:56:32.386Z,18.83
2019-03-28T14:00:48.954Z,17.27
2019-03-28T14:05:06.660Z,18.50
2019-03-28T14:09:23.593Z,16.77
2019-03-28T14:13:40.335Z,21.23
2019-03-28T14:17:57.206Z,17.93
2019-03-28T14:22:14.047Z,19.30
2019-03-28T14:26:39.088Z,18.93
2019-03-28T14:30:55.588Z,17.77
2019-03-28T14:35:12.405Z,27.23
2019-03-28T14:39:28.846Z,21.23
2019-03-28T14:43:45.368Z,17.57
2019-03-28T14:48:01.896Z,14.07
2019-03-28T14:52:18.655Z,20.10
2019-03-28T14:56:35.708Z,13.80
2019-03-28T15:00:53.272Z,20.13
2019-03-28T15:05:09.977Z,19.13
2019-03-28T15:09:26.819Z,19.63
2019-03-28T15:13:43.331Z,19.63
2019-03-28T15:17:59.811Z,15.33
2019-03-28T15:22:16.517Z,18.67
2019-03-28T15:26:32.961Z,15.53
2019-03-28T15:30:49.920Z,21.40
2019-03-28T15:35:06.640Z,21.90
2019-03-28T15:39:23.118Z,16.67
2019-03-28T15:43:39.660Z,15.93
2019-03-28T15:47:56.577Z,18.83
2019-03-28T15:52:13.106Z,22.73
2019-03-28T15:56:29.630Z,20.07
2019-03-28T16:00:46.253Z,24.97
2019-03-28T16:05:04.723Z,18.93
2019-03-28T16:09:21.232Z,23.17
2019-03-28T16:13:37.843Z,22.33
2019-03-28T16:17:57.587Z,25.47
2019-03-28T16:22:15.533Z,27.17
2019-03-28T16:26:31.882Z,28.77
2019-03-28T16:30:49.822Z,23.13
2019-03-28T16:35:07.290Z,24.37
2019-03-28T16:39:24.105Z,24.77
2019-03-28T16:43:40.758Z,19.40
2019-03-28T16:47:57.257Z,24.60
2019-03-28T16:52:13.979Z,29.67
2019-03-28T16:56:30.698Z,23.00
2019-03-28T17:00:47.510Z,27.50
2019-03-28T17:05:05.646Z,22.80
2019-03-28T17:09:23.317Z,28.47
2019-03-28T17:13:39.944Z,19.50
2019-03-28T17:17:56.458Z,25.03
2019-03-28T17:22:13.862Z,23.87
2019-03-28T17:26:30.707Z,21.10
2019-03-28T17:30:48.262Z,22.10
2019-03-28T17:35:05.018Z,18.33
2019-03-28T17:39:21.594Z,20.23
2019-03-28T17:43:38.271Z,22.80
2019-03-28T17:47:54.924Z,12.07
2019-03-28T17:52:11.425Z,23.63
2019-03-28T17:56:28.241Z,18.53
2019-03-28T18:00:46.562Z,20.13
2019-03-28T18:05:09.590Z,19.70
2019-03-28T18:09:23.965Z,18.40
2019-03-28T18:13:41.532Z,13.17
2019-03-28T18:17:58.194Z,22.03
2019-03-28T18:22:14.706Z,18.87
2019-03-28T18:26:31.605Z,21.50
2019-03-28T18:30:48.258Z,22.47
2019-03-28T18:35:07.073Z,13.70
2019-03-28T18:39:23.941Z,17.10
2019-03-28T18:43:41.779Z,17.40
2019-03-28T18:47:58.427Z,19.07
2019-03-28T18:52:15.049Z,12.60
2019-03-28T18:56:31.843Z,19.17
2019-03-28T19:00:48.610Z,13.80
2019-03-28T19:05:18.770Z,10.90
2019-03-28T19:09:24.287Z,17.27
2019-03-28T19:13:40.873Z,10.83
2019-03-28T19:17:57.558Z,10.07
2019-03-28T19:22:14.343Z,11.73
2019-03-28T19:26:32.170Z,14.13
2019-03-28T19:30:52.110Z,11.73
2019-03-28T19:35:09.283Z,12.20
2019-03-28T19:39:31.878Z,7.10
2019-03-28T19:43:49.901Z,11.53
2019-03-28T19:48:07.775Z,10.47
2019-03-28T19:52:24.281Z,6.50
2019-03-28T19:56:40.783Z,10.43
2019-03-28T20:00:57.670Z,9.33
2019-03-28T20:05:15.275Z,7.47
2019-03-28T20:09:31.956Z,21.03
2019-03-28T20:13:48.533Z,14.33
2019-03-28T20:18:06.454Z,14.47
2019-03-28T20:22:23.045Z,13.53
2019-03-28T20:26:40.635Z,32.83
2019-03-28T20:30:57.332Z,13.57
2019-03-28T20:35:14.151Z,6.80
2019-03-28T20:39:30.897Z,7.13
2019-03-28T20:43:47.464Z,9.13
2019-03-28T20:48:04.082Z,4.77
2019-03-28T20:52:20.693Z,4.03
2019-03-28T20:56:37.529Z,8.37
2019-03-28T21:00:54.038Z,5.80
2019-03-28T21:05:11.172Z,5.33
2019-03-28T21:09:28.761Z,5.87
2019-03-28T21:13:45.319Z,6.27
2019-03-28T21:18:02.050Z,4.23
2019-03-28T21:22:18.893Z,8.57
2019-03-28T21:26:35.813Z,7.10
2019-03-28T21:30:52.290Z,5.77
2019-03-28T21:35:09.022Z,5.10
2019-03-28T21:39:25.549Z,12.47
2019-03-28T21:43:42.040Z,20.03
2019-03-28T21:47:58.574Z,14.20
2019-03-28T21:52:15.118Z,9.97
2019-03-28T21:56:31.732Z,11.10
2019-03-28T22:00:48.242Z,22.03
2019-03-28T22:05:06.447Z,20.90
2019-03-28T22:09:23.004Z,13.40
2019-03-28T22:13:39.471Z,10.40
2019-03-28T22:17:56.036Z,9.47
2019-03-28T22:22:12.830Z,5.50
2019-03-28T22:26:29.654Z,6.17
2019-03-28T22:30:46.180Z,4.20
2019-03-28T22:35:07.152Z,5.87
2019-03-28T22:39:23.592Z,5.83
2019-03-28T22:43:40.286Z,10.77
2019-03-28T22:48:09.785Z,17.73
2019-03-28T22:52:15.211Z,23.10
2019-03-28T22:56:31.855Z,20.50
2019-03-28T23:00:51.840Z,23.37
2019-03-28T23:05:09.485Z,9.47
2019-03-28T23:09:26.270Z,5.30
2019-03-28T23:13:42.694Z,11.00
2019-03-28T23:18:00.515Z,11.77
2019-03-28T23:22:17.351Z,21.03
2019-03-28T23:26:34.840Z,9.93
2019-03-28T23:30:51.522Z,11.03
2019-03-28T23:35:08.546Z,8.93
2019-03-28T23:39:25.043Z,9.87
2019-03-28T23:43:41.587Z,10.67
2019-03-28T23:47:58.075Z,13.90
2019-03-28T23:52:14.612Z,9.50
2019-03-28T23:56:31.153Z,6.63
